Dickinson Theodore Roosevelt Regional Airport
KDIK : now visible

Airfield :











YOU CAN JOIN US ON...

 
LOGIN :

Register | Disclaimer

   EN    FR    IT 

 









Legend :    VFR   Marginal VFR   IFR   Intensive IFR   Very Intensive IFR
Visi :
Ceiling :
>= 8 km
>= 3000ft
5 to 8 km
1000 to 3000 ft
1500m to 5 km
500 to 1000 ft
800 to 1500m
200 to 500 ft
< 800m
< 200 ft
Symbols :   Thunderstorms  Fog  Heavy snow  Heavy precipitations  Wind > 20 kt







- Airport Elevation : 2592 ft


KDIK - Dickinson Theodore Roosevelt Regional

CURRENT METAR :
  • 222356Z AUTO 14020G31KT 10SM CLR 26/14 A2987 RMK AO2 PK WND 14031/2315 SLP101 T02560144 10294 20256 55003

EXPIRED METARs :
  • 222256Z AUTO 15021G30KT 10SM SCT042 28/16 A2986 RMK AO2 PK WND 12033/2232 SLP099 T02780156

TAF KDIK
Valid from the 23 at 00:00 until the 24 at 00:00 UTC


222323Z 2300/2324 13014G25KT P6SM FEW070 SCT200
FM230300 14015G22KT P6SM SCT070 BKN150
FM231000 14012G20KT 6SM -SHRA BR BKN015 OVC025
FM231800 16012KT P6SM VCSH SCT015 BKN025
No reported NOTAMs for that airfield.



MET'MAP, your aeronautical weather chart ! - Copyright ORBIFLY December 2007 - Disclaimer

ORBIFLY MET'MAP TEAM :

Programming & Development : Alexandra Zaïnal
Concept & Development : Baudouin d'Aumeries
Co-Development & Prog : Marc-Olivier Méhu
Technical & hardware support : Manuel Goepfert

Contact : metmap@orbifly.com




SOURCES & CREDITS :

   NOAA       Earth
Advisory